Disclaimer

Please do not use the information listed here in-flight or in-navigation, as they are not provided to us by the airports but are provided by volunteers, so they might be outdated.

Search


Regions


Airport information page

Radio informations:
Tower (TWR) - 122.1 MHz
Ground (GND) - 121.95 MHz
Approach (APP) - 122.1 MHz

Airport informations:
Latitude: 38° 46' 13.39" N
Longitude: 035° 29' 43.54" E
Elevation: 3463 feet - 1056 meters
Operating hours: N/A
Operating agency: Military-civil joint use airport
Timezone: UTC+2(+3DT)
Fuel: JP-4, Wide cut turbine fuel MIL Spec T-5624

115/145 octane gasoline, leaded, MIL-L-5572F (PURPLE)

Runway information:
07/25 - 9841 x 145 feet< - >3000 x 44 meters

Recent METARs:
LTAU 122150Z 07004KT 030V090 CAVOK 01/M02 Q1024 NOSIG RMK RWY07 08004KT 020V090
LTAU 122220Z 03004KT CAVOK 01/M01 Q1024 NOSIG RMK RWY07 03004KT
LTAU 122250Z 05005KT CAVOK 01/M03 Q1024 NOSIG RMK RWY07 03003KT 360V070

Airport on the map: